Airfield :
LOGIN :

Register | Disclaimer

   EN    FR    IT 

 










Legend :    VFR   Marginal VFR   IFR   Intensive IFR   Very Intensive IFR
Visi :
Ceiling :
>= 8 km
>= 3000ft
5 to 8 km
1000 to 3000 ft
1500m to 5 km
500 to 1000 ft
800 to 1500m
200 to 500 ft
< 800m
< 200 ft
Symbols :   Thunderstorms  Fog  Heavy snow  Heavy precipitations  Wind > 20 kt
SIGMETs :     Misc.  Thunderstorms  Icing  Turbulence  Mountain Waves  Volcanic Ashes






- Airport Elevation : 489 ft
- IATA code : GDN


EPGD - Gdansk

CURRENT METAR :
  • 181900Z 08005KT CAVOK 17/14 Q1014

EXPIRED METARs :
  • 181830Z 05004KT 010V080 CAVOK 18/13 Q1014
  • 181730Z 05007KT CAVOK 19/13 Q1014
  • 181700Z 06007KT 9999 FEW042 19/13 Q1015
  • 181630Z 05007KT CAVOK 20/13 Q1015
  • 181600Z 05007KT 9999 FEW040 21/14 Q1015
  • 181530Z 05008KT 9999 FEW030 21/14 Q1015
  • 181500Z 05009KT 030V090 9999 SCT030 21/14 Q1015
  • 181430Z 35005KT 310V050 9999 FEW035 22/15 Q1015

TAF TAF EPGD
Valid from the 18 at 18:00 until the 19 at 18:00 UTC


181730Z 1818/1918 06005KT CAVOK
TEMPO 1823/1905 4000 TSRA BKN050CB
PROB40
TEMPO 1823/1905 VRB20G30KT 2000 +TSRA BKN014 BKN050CB
TEMPO 1905/1910 3000 BR BKN003 BKN006 BKN012
BECMG 1906/1909 30010KT



MET'MAP, your aeronautical weather chart ! - Copyright ORBIFLY December 2007 - Disclaimer

ORBIFLY MET'MAP TEAM :

Programming & Development : Alexandra Zaïnal
Original concept : Baudouin d'Aumeries
Technical & hardware support : Manuel Goepfert
Assistance : Marc-Olivier Méhu




SOURCES & CREDITS :

   NOAA